sensor_id;sensor_type;location;lat;lon;timestamp;P1;durP1;ratioP1;P2;durP2;ratioP2
75858;SDS011;64504;51.308;8.620;2022-12-18T08:41:39;2.33;;;1.87;;
75858;SDS011;64504;51.308;8.620;2022-12-18T08:44:04;4.07;;;1.58;;
75858;SDS011;64504;51.308;8.620;2022-12-18T08:46:59;1.40;;;1.30;;
75858;SDS011;64504;51.308;8.620;2022-12-18T08:49:25;4.50;;;1.63;;
75858;SDS011;64504;51.308;8.620;2022-12-18T08:51:53;0.85;;;0.85;;
75858;SDS011;64504;51.308;8.620;2022-12-18T08:54:19;1.30;;;1.20;;
75858;SDS011;64504;51.308;8.620;2022-12-18T08:56:45;2.78;;;1.40;;
75858;SDS011;64504;51.308;8.620;2022-12-18T08:59:11;0.52;;;0.52;;
75858;SDS011;64504;51.308;8.620;2022-12-18T09:01:36;1.20;;;1.13;;
75858;SDS011;64504;51.308;8.620;2022-12-18T09:04:02;1.17;;;1.05;;
75858;SDS011;64504;51.308;8.620;2022-12-18T09:06:28;0.60;;;0.60;;
75858;SDS011;64504;51.308;8.620;2022-12-18T09:08:53;0.95;;;0.95;;
75858;SDS011;64504;51.308;8.620;2022-12-18T09:11:23;1.67;;;1.58;;
75858;SDS011;64504;51.308;8.620;2022-12-18T09:13:50;3.17;;;1.02;;
75858;SDS011;64504;51.308;8.620;2022-12-18T09:16:18;1.27;;;1.20;;
75858;SDS011;64504;51.308;8.620;2022-12-18T09:18:44;1.58;;;1.48;;
75858;SDS011;64504;51.308;8.620;2022-12-18T09:21:14;1.13;;;1.00;;
75858;SDS011;64504;51.308;8.620;2022-12-18T09:23:42;2.45;;;1.60;;
75858;SDS011;64504;51.308;8.620;2022-12-18T09:26:07;3.05;;;1.02;;
75858;SDS011;64504;51.308;8.620;2022-12-18T09:28:33;1.77;;;1.10;;
75858;SDS011;64504;51.308;8.620;2022-12-18T09:31:02;0.63;;;0.55;;
75858;SDS011;64504;51.308;8.620;2022-12-18T09:33:30;1.48;;;1.38;;
75858;SDS011;64504;51.308;8.620;2022-12-18T09:35:56;1.40;;;1.15;;
75858;SDS011;64504;51.308;8.620;2022-12-18T09:38:21;1.10;;;1.00;;
75858;SDS011;64504;51.308;8.620;2022-12-18T09:40:51;3.13;;;1.20;;
75858;SDS011;64504;51.308;8.620;2022-12-18T09:43:29;1.40;;;1.20;;
75858;SDS011;64504;51.308;8.620;2022-12-18T09:46:06;0.80;;;0.80;;
75858;SDS011;64504;51.308;8.620;2022-12-18T09:48:35;0.63;;;0.63;;
75858;SDS011;64504;51.308;8.620;2022-12-18T09:51:04;0.85;;;0.85;;
75858;SDS011;64504;51.308;8.620;2022-12-18T09:53:37;6.50;;;1.90;;
75858;SDS011;64504;51.308;8.620;2022-12-18T09:56:03;0.85;;;0.82;;
75858;SDS011;64504;51.308;8.620;2022-12-18T09:58:40;0.95;;;0.90;;
75858;SDS011;64504;51.308;8.620;2022-12-18T10:01:14;1.27;;;1.08;;
75858;SDS011;64504;51.308;8.620;2022-12-18T10:03:42;0.93;;;0.93;;
75858;SDS011;64504;51.308;8.620;2022-12-18T10:08:42;1.38;;;1.27;;
75858;SDS011;64504;51.308;8.620;2022-12-18T10:19:56;0.80;;;0.63;;
75858;SDS011;64504;51.308;8.620;2022-12-18T10:22:56;1.55;;;1.33;;
75858;SDS011;64504;51.308;8.620;2022-12-18T10:25:31;1.10;;;1.10;;
75858;SDS011;64504;51.308;8.620;2022-12-18T10:28:16;0.45;;;0.45;;
75858;SDS011;64504;51.308;8.620;2022-12-18T10:30:43;1.10;;;0.82;;
75858;SDS011;64504;51.308;8.620;2022-12-18T10:33:13;1.63;;;1.52;;
75858;SDS011;64504;51.308;8.620;2022-12-18T10:35:48;0.80;;;0.77;;
75858;SDS011;64504;51.308;8.620;2022-12-18T10:38:22;2.08;;;1.30;;
75858;SDS011;64504;51.308;8.620;2022-12-18T10:41:01;1.95;;;1.38;;
75858;SDS011;64504;51.308;8.620;2022-12-18T10:43:28;2.33;;;1.38;;
75858;SDS011;64504;51.308;8.620;2022-12-18T10:46:14;0.55;;;0.55;;
75858;SDS011;64504;51.308;8.620;2022-12-18T10:51:21;0.80;;;0.80;;
75858;SDS011;64504;51.308;8.620;2022-12-18T10:54:16;1.33;;;1.23;;
75858;SDS011;64504;51.308;8.620;2022-12-18T10:56:51;2.90;;;1.20;;
75858;SDS011;64504;51.308;8.620;2022-12-18T11:02:37;1.38;;;1.27;;
75858;SDS011;64504;51.308;8.620;2022-12-18T11:05:03;0.77;;;0.77;;
75858;SDS011;64504;51.308;8.620;2022-12-18T11:07:48;1.20;;;1.10;;
75858;SDS011;64504;51.308;8.620;2022-12-18T11:10:20;1.33;;;0.77;;
75858;SDS011;64504;51.308;8.620;2022-12-18T11:12:47;2.72;;;1.65;;
75858;SDS011;64504;51.308;8.620;2022-12-18T11:15:29;0.85;;;0.85;;
75858;SDS011;64504;51.308;8.620;2022-12-18T11:17:55;0.80;;;0.52;;
75858;SDS011;64504;51.308;8.620;2022-12-18T11:23:01;5.93;;;1.38;;
75858;SDS011;64504;51.308;8.620;2022-12-18T11:25:28;1.17;;;1.00;;
75858;SDS011;64504;51.308;8.620;2022-12-18T11:28:05;3.55;;;1.30;;
75858;SDS011;64504;51.308;8.620;2022-12-18T11:30:50;1.42;;;1.33;;
75858;SDS011;64504;51.308;8.620;2022-12-18T11:36:58;2.33;;;2.10;;
75858;SDS011;64504;51.308;8.620;2022-12-18T11:39:35;1.80;;;0.73;;
75858;SDS011;64504;51.308;8.620;2022-12-18T11:50:41;1.42;;;1.33;;
75858;SDS011;64504;51.308;8.620;2022-12-18T11:53:17;2.13;;;1.48;;
75858;SDS011;64504;51.308;8.620;2022-12-18T11:55:53;3.30;;;1.88;;
75858;SDS011;64504;51.308;8.620;2022-12-18T12:07:02;1.35;;;1.25;;
75858;SDS011;64504;51.308;8.620;2022-12-18T12:09:45;3.45;;;1.73;;
75858;SDS011;64504;51.308;8.620;2022-12-18T12:15:56;5.18;;;1.10;;
75858;SDS011;64504;51.308;8.620;2022-12-18T12:21:14;1.42;;;1.33;;
75858;SDS011;64504;51.308;8.620;2022-12-18T12:32:00;5.05;;;1.95;;
75858;SDS011;64504;51.308;8.620;2022-12-18T12:40:29;2.35;;;2.15;;
75858;SDS011;64504;51.308;8.620;2022-12-18T12:43:02;4.60;;;1.88;;
75858;SDS011;64504;51.308;8.620;2022-12-18T12:51:09;7.88;;;2.90;;
75858;SDS011;64504;51.308;8.620;2022-12-18T12:53:38;3.38;;;2.10;;
75858;SDS011;64504;51.308;8.620;2022-12-18T12:56:04;5.93;;;3.40;;
75858;SDS011;64504;51.308;8.620;2022-12-18T13:01:09;6.43;;;3.85;;
75858;SDS011;64504;51.308;8.620;2022-12-18T13:03:54;2.90;;;1.52;;
75858;SDS011;64504;51.308;8.620;2022-12-18T13:09:17;3.72;;;2.78;;
75858;SDS011;64504;51.308;8.620;2022-12-18T13:11:46;4.40;;;2.47;;
75858;SDS011;64504;51.308;8.620;2022-12-18T13:14:34;4.95;;;3.75;;
75858;SDS011;64504;51.308;8.620;2022-12-18T13:19:48;4.13;;;3.72;;
75858;SDS011;64504;51.308;8.620;2022-12-18T13:22:35;4.32;;;3.63;;
75858;SDS011;64504;51.308;8.620;2022-12-18T13:28:12;8.55;;;5.20;;
75858;SDS011;64504;51.308;8.620;2022-12-18T13:30:47;9.88;;;5.07;;
75858;SDS011;64504;51.308;8.620;2022-12-18T13:43:54;6.60;;;4.25;;
75858;SDS011;64504;51.308;8.620;2022-12-18T13:49:00;6.15;;;4.40;;
75858;SDS011;64504;51.308;8.620;2022-12-18T13:51:32;6.97;;;6.20;;
75858;SDS011;64504;51.308;8.620;2022-12-18T13:56:51;9.48;;;5.18;;
75858;SDS011;64504;51.308;8.620;2022-12-18T13:59:18;12.82;;;7.07;;
75858;SDS011;64504;51.308;8.620;2022-12-18T14:04:27;8.18;;;6.90;;
75858;SDS011;64504;51.308;8.620;2022-12-18T14:07:13;15.35;;;8.50;;
75858;SDS011;64504;51.308;8.620;2022-12-18T14:09:46;14.63;;;5.70;;
75858;SDS011;64504;51.308;8.620;2022-12-18T14:12:16;11.63;;;8.68;;
75858;SDS011;64504;51.308;8.620;2022-12-18T14:15:01;14.93;;;6.95;;
75858;SDS011;64504;51.308;8.620;2022-12-18T14:17:27;11.50;;;7.75;;
75858;SDS011;64504;51.308;8.620;2022-12-18T14:19:52;17.77;;;10.25;;
75858;SDS011;64504;51.308;8.620;2022-12-18T14:22:21;9.73;;;7.80;;
75858;SDS011;64504;51.308;8.620;2022-12-18T14:27:42;9.75;;;7.07;;
75858;SDS011;64504;51.308;8.620;2022-12-18T14:33:02;11.40;;;7.38;;
75858;SDS011;64504;51.308;8.620;2022-12-18T14:35:28;18.00;;;9.93;;
75858;SDS011;64504;51.308;8.620;2022-12-18T14:37:55;14.57;;;10.10;;
75858;SDS011;64504;51.308;8.620;2022-12-18T14:40:36;14.07;;;9.02;;
75858;SDS011;64504;51.308;8.620;2022-12-18T14:43:02;15.05;;;9.45;;
75858;SDS011;64504;51.308;8.620;2022-12-18T14:50:41;15.75;;;10.20;;
75858;SDS011;64504;51.308;8.620;2022-12-18T14:53:17;15.48;;;9.45;;
75858;SDS011;64504;51.308;8.620;2022-12-18T14:55:48;17.42;;;11.18;;
75858;SDS011;64504;51.308;8.620;2022-12-18T14:58:15;15.23;;;11.40;;
75858;SDS011;64504;51.308;8.620;2022-12-18T15:00:41;21.73;;;10.27;;
75858;SDS011;64504;51.308;8.620;2022-12-18T15:03:07;17.52;;;12.43;;
75858;SDS011;64504;51.308;8.620;2022-12-18T15:05:33;15.50;;;9.93;;
75858;SDS011;64504;51.308;8.620;2022-12-18T15:08:00;12.73;;;9.38;;
75858;SDS011;64504;51.308;8.620;2022-12-18T15:20:41;21.45;;;11.10;;
75858;SDS011;64504;51.308;8.620;2022-12-18T15:25:59;16.85;;;11.30;;
75858;SDS011;64504;51.308;8.620;2022-12-18T15:28:35;16.33;;;11.40;;
75858;SDS011;64504;51.308;8.620;2022-12-18T15:33:40;22.95;;;12.55;;
75858;SDS011;64504;51.308;8.620;2022-12-18T15:36:11;24.50;;;12.45;;
75858;SDS011;64504;51.308;8.620;2022-12-18T15:38:40;17.42;;;13.88;;
75858;SDS011;64504;51.308;8.620;2022-12-18T15:41:10;18.20;;;13.32;;
75858;SDS011;64504;51.308;8.620;2022-12-18T15:43:39;16.58;;;13.32;;
